createdAt,value
2023-02-02T00:04:40.215Z,101501.13
2023-02-02T00:09:41.887Z,101503.69
2023-02-02T00:14:45.025Z,101504.94
2023-02-02T00:19:46.817Z,101514.31
2023-02-02T00:24:53.791Z,101508.16
2023-02-02T00:29:57.542Z,101514.00
2023-02-02T00:34:59.206Z,101523.06
2023-02-02T00:40:05.778Z,101524.34
2023-02-02T00:45:16.801Z,101528.16
2023-02-02T00:50:23.023Z,101532.25
2023-02-02T00:55:27.956Z,101542.19
2023-02-02T01:00:33.355Z,101548.47
2023-02-02T01:05:35.140Z,101545.38
2023-02-02T01:10:39.072Z,101553.94
2023-02-02T01:15:40.813Z,101556.44
2023-02-02T01:20:43.079Z,101563.63
2023-02-02T01:25:45.627Z,101566.94
2023-02-02T01:30:49.632Z,101569.69
2023-02-02T01:35:55.746Z,101565.03
2023-02-02T01:40:58.315Z,101571.63
2023-02-02T01:46:04.765Z,101584.78
2023-02-02T01:51:12.219Z,101569.44
2023-02-02T01:56:25.228Z,101595.28
2023-02-02T02:01:35.810Z,101595.22
2023-02-02T02:06:45.386Z,101606.31
2023-02-02T02:12:01.338Z,101608.41
2023-02-02T02:17:27.757Z,101612.03
2023-02-02T02:23:06.184Z,101613.22
2023-02-02T02:28:16.547Z,101603.50
2023-02-02T02:33:53.790Z,101603.81
2023-02-02T02:39:39.420Z,101613.09
2023-02-02T02:44:42.158Z,101614.09
2023-02-02T02:49:47.611Z,101619.97
2023-02-02T02:54:55.372Z,101626.59
2023-02-02T03:00:15.850Z,101633.47
2023-02-02T03:05:24.667Z,101646.22
2023-02-02T03:10:30.455Z,101645.63
2023-02-02T03:15:34.845Z,101657.78
2023-02-02T03:20:38.870Z,101652.13
2023-02-02T03:25:44.367Z,101649.47
2023-02-02T03:30:51.018Z,101664.53
2023-02-02T03:35:55.136Z,101669.94
2023-02-02T03:41:04.222Z,101676.44
2023-02-02T03:46:06.572Z,101672.84
2023-02-02T03:51:15.063Z,101686.44
2023-02-02T03:56:17.182Z,101687.75
2023-02-02T04:01:27.958Z,101694.84
2023-02-02T04:06:30.259Z,101701.50
2023-02-02T04:11:32.376Z,101705.72
2023-02-02T04:16:38.899Z,101709.03
2023-02-02T04:21:45.674Z,101715.28
2023-02-02T04:26:49.874Z,101727.78
2023-02-02T04:31:51.797Z,101729.91
2023-02-02T04:36:56.147Z,101727.25
2023-02-02T04:42:03.603Z,101731.81
2023-02-02T04:47:05.382Z,101734.44
2023-02-02T04:52:07.224Z,101740.91
2023-02-02T04:57:08.959Z,101746.63
2023-02-02T05:02:12.923Z,101754.75
2023-02-02T05:07:16.948Z,101751.41
2023-02-02T05:12:21.148Z,101750.28
2023-02-02T05:17:25.408Z,101755.28
2023-02-02T05:22:29.428Z,101752.94
2023-02-02T05:27:31.087Z,101769.34
2023-02-02T05:32:39.857Z,101765.72
2023-02-02T05:37:44.515Z,101776.00
2023-02-02T05:42:48.691Z,101778.66
2023-02-02T05:47:58.382Z,101775.97
2023-02-02T05:53:02.764Z,101786.94
2023-02-02T05:58:08.711Z,101791.78
2023-02-02T06:03:12.903Z,101804.81
2023-02-02T06:08:19.629Z,101802.81
2023-02-02T06:13:23.824Z,101803.91
2023-02-02T06:18:27.989Z,101803.13
2023-02-02T06:23:32.924Z,101811.50
2023-02-02T06:28:34.601Z,101802.03
2023-02-02T06:33:38.859Z,101810.22
2023-02-02T06:38:45.113Z,101826.66
2023-02-02T06:43:48.820Z,101838.88
2023-02-02T06:48:50.500Z,101844.97
2023-02-02T06:53:54.775Z,101842.53
2023-02-02T06:58:56.754Z,101843.72
2023-02-02T07:03:59.107Z,101855.22
2023-02-02T07:09:03.607Z,101856.38
2023-02-02T07:14:08.294Z,101860.19
2023-02-02T07:19:10.022Z,101858.31
2023-02-02T07:24:11.691Z,101870.31
2023-02-02T07:29:14.754Z,101873.50
2023-02-02T07:34:16.880Z,101889.28
2023-02-02T07:39:18.666Z,101899.78
2023-02-02T07:44:22.904Z,101901.22
2023-02-02T07:49:27.085Z,101913.72
2023-02-02T07:54:32.195Z,101918.59
2023-02-02T07:59:34.145Z,101933.84
2023-02-02T08:04:38.479Z,101932.53
2023-02-02T08:09:46.752Z,101938.47
2023-02-02T08:14:54.528Z,101944.81
2023-02-02T08:20:01.349Z,101958.47
2023-02-02T08:25:05.509Z,101971.38
2023-02-02T08:30:08.323Z,101973.84
2023-02-02T08:35:10.161Z,101968.66
2023-02-02T08:40:14.188Z,101971.38
2023-02-02T08:46:01.722Z,101978.25
2023-02-02T08:50:42.731Z,101985.72
2023-02-02T08:55:48.645Z,101988.06
2023-02-02T09:00:52.606Z,101991.47
2023-02-02T09:05:55.411Z,101997.53
2023-02-02T09:11:06.662Z,101997.38
2023-02-02T09:16:16.446Z,102017.56
2023-02-02T09:21:21.243Z,102024.78
2023-02-02T09:26:29.682Z,102036.38
2023-02-02T09:31:36.711Z,102033.59
2023-02-02T09:36:42.789Z,102047.72
2023-02-02T09:42:05.000Z,102045.53
2023-02-02T09:47:18.196Z,102054.13
2023-02-02T09:52:50.571Z,102068.97
2023-02-02T09:58:02.616Z,102068.63
2023-02-02T10:03:21.444Z,102078.75
2023-02-02T10:08:36.144Z,102096.88
2023-02-02T10:13:43.641Z,102095.00
2023-02-02T10:19:07.296Z,102097.78
2023-02-02T10:24:22.741Z,102102.75
2023-02-02T10:29:25.503Z,102113.16
2023-02-02T10:34:44.114Z,102117.09
2023-02-02T10:40:18.669Z,102124.41
2023-02-02T10:45:21.327Z,102125.47
2023-02-02T10:50:27.809Z,102132.00
2023-02-02T10:55:50.067Z,102127.88
2023-02-02T11:00:58.050Z,102132.94
2023-02-02T11:06:20.644Z,102144.34
2023-02-02T11:11:42.477Z,102146.47
2023-02-02T11:17:03.544Z,102151.38
2023-02-02T11:22:25.302Z,102154.88
2023-02-02T11:27:49.483Z,102159.63
2023-02-02T11:32:51.225Z,102162.72
2023-02-02T11:38:18.299Z,102155.84
2023-02-02T11:43:30.984Z,102155.28
2023-02-02T11:48:39.389Z,102169.06
2023-02-02T11:53:46.969Z,102161.94
2023-02-02T11:58:49.158Z,102153.63
2023-02-02T12:03:52.821Z,102153.00
2023-02-02T12:08:58.576Z,102153.06
2023-02-02T12:14:12.236Z,102159.88
2023-02-02T12:19:26.728Z,102163.72
2023-02-02T12:24:32.517Z,102154.53
2023-02-02T12:29:48.550Z,102159.34
2023-02-02T12:35:05.505Z,102157.91
2023-02-02T12:40:18.511Z,102146.94
2023-02-02T12:45:25.432Z,102144.72
2023-02-02T12:50:51.325Z,102144.47
2023-02-02T12:56:27.424Z,102149.63
2023-02-02T13:01:41.488Z,102141.59
2023-02-02T13:07:01.022Z,102143.19
2023-02-02T13:12:12.146Z,102140.72
2023-02-02T13:17:56.426Z,102141.72
2023-02-02T13:23:00.460Z,102150.91
2023-02-02T13:28:07.176Z,102155.09
2023-02-02T13:33:33.037Z,102152.41
2023-02-02T13:38:42.022Z,102158.34
2023-02-02T13:43:50.645Z,102147.63
2023-02-02T13:48:58.611Z,102150.41
2023-02-02T13:54:19.525Z,102145.81
2023-02-02T13:59:42.400Z,102139.50
2023-02-02T14:04:55.218Z,102135.59
2023-02-02T14:10:01.008Z,102136.41
2023-02-02T14:15:02.973Z,102139.94
2023-02-02T14:20:46.327Z,102133.63
2023-02-02T14:26:13.595Z,102145.94
2023-02-02T14:31:52.237Z,102147.19
2023-02-02T14:37:17.643Z,102155.53
2023-02-02T14:42:50.148Z,102163.91
2023-02-02T14:47:55.188Z,102168.59
2023-02-02T14:53:04.032Z,102165.91
2023-02-02T14:58:06.816Z,102162.97
2023-02-02T15:03:47.785Z,102182.66
2023-02-02T15:09:20.538Z,102186.28
2023-02-02T15:14:23.425Z,102203.19
2023-02-02T15:19:36.442Z,102189.81
2023-02-02T15:24:40.414Z,102195.44
2023-02-02T15:29:48.725Z,102201.28
2023-02-02T15:34:58.155Z,102203.56
2023-02-02T15:40:04.544Z,102218.41
2023-02-02T15:45:31.012Z,102229.66
2023-02-02T15:50:35.596Z,102234.00
2023-02-02T15:55:44.086Z,102233.94
2023-02-02T16:01:03.099Z,102227.63
2023-02-02T16:06:08.421Z,102231.94
2023-02-02T16:11:18.190Z,102237.28
2023-02-02T16:16:36.041Z,102245.88
2023-02-02T16:21:42.972Z,102248.09
2023-02-02T16:26:45.668Z,102241.94
2023-02-02T16:31:48.588Z,102237.34
2023-02-02T16:37:16.643Z,102226.25
2023-02-02T16:42:30.541Z,102230.47
2023-02-02T16:47:34.340Z,102229.38
2023-02-02T16:53:04.843Z,102225.88
2023-02-02T16:58:13.254Z,102233.69
2023-02-02T17:03:20.241Z,102229.00
2023-02-02T17:08:35.019Z,102228.59
2023-02-02T17:13:39.468Z,102244.06
2023-02-02T17:18:41.311Z,102241.84
2023-02-02T17:23:55.036Z,102235.22
2023-02-02T17:29:00.303Z,102233.97
2023-02-02T17:34:11.733Z,102219.38
2023-02-02T17:39:20.447Z,102214.41
2023-02-02T17:44:27.488Z,102214.88
2023-02-02T17:49:29.191Z,102220.44
2023-02-02T17:54:35.928Z,102215.34
2023-02-02T17:59:37.699Z,102207.47
2023-02-02T18:04:43.144Z,102201.31
2023-02-02T18:09:47.957Z,102199.13
2023-02-02T18:14:52.369Z,102180.06
2023-02-02T18:19:56.740Z,102170.41
2023-02-02T18:24:58.974Z,102178.97
2023-02-02T18:30:03.759Z,102180.06
2023-02-02T18:35:11.081Z,102169.94
2023-02-02T18:40:13.117Z,102157.75
2023-02-02T18:45:14.942Z,102164.25
2023-02-02T18:50:21.151Z,102150.38
2023-02-02T18:55:23.030Z,102140.94
2023-02-02T19:00:27.624Z,102126.13
2023-02-02T19:05:50.809Z,102116.44
2023-02-02T19:11:03.326Z,102101.59
2023-02-02T19:16:19.347Z,102097.97
2023-02-02T19:21:28.348Z,102102.22
2023-02-02T19:26:42.247Z,102099.44
2023-02-02T19:31:46.830Z,102089.69
2023-02-02T19:36:52.257Z,102082.47
2023-02-02T19:41:59.785Z,102085.81
2023-02-02T19:47:03.165Z,102072.31
2023-02-02T19:52:16.748Z,102072.94
2023-02-02T19:57:26.927Z,102056.03
2023-02-02T20:02:43.569Z,102062.81
2023-02-02T20:07:45.639Z,102049.28
2023-02-02T20:12:53.465Z,102047.13
2023-02-02T20:17:58.779Z,102038.81
2023-02-02T20:23:00.522Z,102026.84
2023-02-02T20:28:08.576Z,102026.13
2023-02-02T20:33:27.339Z,102026.59
2023-02-02T20:38:39.282Z,102022.59
2023-02-02T20:43:44.571Z,102024.75
2023-02-02T20:48:52.647Z,102020.53
2023-02-02T20:53:56.947Z,102014.47
2023-02-02T20:59:02.071Z,102011.56
2023-02-02T21:04:07.236Z,102011.44
2023-02-02T21:09:09.834Z,102009.13
2023-02-02T21:14:11.596Z,101993.66
2023-02-02T21:19:18.200Z,101985.88
2023-02-02T21:24:22.138Z,101977.41
2023-02-02T21:29:25.434Z,101970.47
2023-02-02T21:34:27.245Z,101969.94
2023-02-02T21:39:35.087Z,101963.97
2023-02-02T21:44:52.466Z,101968.19
2023-02-02T21:50:01.185Z,101977.59
2023-02-02T21:55:22.755Z,101960.53
2023-02-02T22:00:31.009Z,101967.56
2023-02-02T22:05:39.145Z,101972.00
2023-02-02T22:10:43.486Z,101959.31
2023-02-02T22:15:50.859Z,101947.69
2023-02-02T22:20:56.572Z,101920.22
2023-02-02T22:25:58.909Z,101899.94
2023-02-02T22:31:05.847Z,101902.59
2023-02-02T22:36:10.517Z,101898.81
2023-02-02T22:41:12.278Z,101880.22
2023-02-02T22:46:16.407Z,101873.66
2023-02-02T22:51:20.641Z,101856.69
2023-02-02T22:56:24.711Z,101870.88
2023-02-02T23:01:31.062Z,101872.53
2023-02-02T23:06:34.965Z,101870.59
2023-02-02T23:11:38.970Z,101874.91
2023-02-02T23:16:43.402Z,101866.56
2023-02-02T23:21:47.451Z,101872.59
2023-02-02T23:26:53.948Z,101890.22
2023-02-02T23:31:58.250Z,101873.84
2023-02-02T23:37:04.691Z,101893.91
2023-02-02T23:42:06.464Z,101897.28
2023-02-02T23:47:12.978Z,101892.66
2023-02-02T23:52:14.970Z,101890.00
2023-02-02T23:57:21.393Z,101897.28
